createdAt,value
2019-02-17T00:02:12.874Z,2.74
2019-02-17T00:04:39.750Z,2.75
2019-02-17T00:07:06.698Z,2.75
2019-02-17T00:09:33.575Z,2.72
2019-02-17T00:12:00.693Z,2.78
2019-02-17T00:14:27.562Z,2.77
2019-02-17T00:16:54.481Z,2.74
2019-02-17T00:19:21.387Z,2.73
2019-02-17T00:21:48.305Z,2.72
2019-02-17T00:24:15.190Z,2.72
2019-02-17T00:26:42.185Z,2.74
2019-02-17T00:29:09.154Z,2.81
2019-02-17T00:31:36.088Z,2.79
2019-02-17T00:34:03.001Z,2.59
2019-02-17T00:36:29.905Z,2.46
2019-02-17T00:38:56.789Z,2.24
2019-02-17T00:41:23.725Z,2.16
2019-02-17T00:43:50.780Z,2.13
2019-02-17T00:46:17.720Z,2.23
2019-02-17T00:48:45.146Z,2.26
2019-02-17T00:51:12.057Z,2.22
2019-02-17T00:53:38.950Z,2.21
2019-02-17T00:56:05.878Z,2.06
2019-02-17T00:58:32.774Z,1.85
2019-02-17T01:01:00.556Z,1.65
2019-02-17T01:03:27.477Z,1.66
2019-02-17T01:05:54.437Z,1.75
2019-02-17T01:08:21.326Z,1.77
2019-02-17T01:10:48.209Z,1.84
2019-02-17T01:13:15.144Z,1.88
2019-02-17T01:15:42.032Z,1.88
2019-02-17T01:18:08.992Z,1.92
2019-02-17T01:20:35.879Z,1.93
2019-02-17T01:23:02.787Z,1.93
2019-02-17T01:25:29.699Z,1.91
2019-02-17T01:27:56.634Z,2.01
2019-02-17T01:30:23.543Z,1.88
2019-02-17T01:32:50.480Z,1.91
2019-02-17T01:35:17.388Z,1.74
2019-02-17T01:37:44.325Z,1.78
2019-02-17T01:40:11.683Z,1.74
2019-02-17T01:42:38.613Z,1.69
2019-02-17T01:45:05.661Z,1.50
2019-02-17T01:47:32.596Z,1.40
2019-02-17T01:49:59.476Z,1.50
2019-02-17T01:52:26.388Z,1.55
2019-02-17T01:54:53.267Z,1.64
2019-02-17T01:57:20.206Z,1.81
2019-02-17T01:59:47.082Z,1.66
2019-02-17T02:02:13.999Z,1.44
2019-02-17T02:04:40.869Z,1.35
2019-02-17T02:07:07.901Z,1.24
2019-02-17T02:09:34.826Z,1.31
2019-02-17T02:12:01.801Z,1.35
2019-02-17T02:14:28.871Z,1.40
2019-02-17T02:16:55.776Z,1.47
2019-02-17T02:19:22.720Z,1.52
2019-02-17T02:21:49.604Z,1.55
2019-02-17T02:24:16.521Z,1.53
2019-02-17T02:26:43.445Z,1.60
2019-02-17T02:29:10.368Z,1.65
2019-02-17T02:31:37.260Z,1.55
2019-02-17T02:34:04.173Z,1.54
2019-02-17T02:36:31.062Z,1.49
2019-02-17T02:38:58.012Z,1.34
2019-02-17T02:41:34.192Z,1.52
2019-02-17T02:43:53.822Z,1.40
2019-02-17T02:46:20.720Z,1.12
2019-02-17T02:48:47.632Z,1.18
2019-02-17T02:51:14.527Z,1.15
2019-02-17T02:53:41.557Z,1.17
2019-02-17T02:56:08.477Z,1.28
2019-02-17T02:58:35.405Z,1.33
2019-02-17T03:01:03.330Z,1.34
2019-02-17T03:03:30.254Z,1.24
2019-02-17T03:06:11.066Z,1.26
2019-02-17T03:08:37.990Z,1.26
2019-02-17T03:11:04.883Z,1.25
2019-02-17T03:13:31.834Z,1.22
2019-02-17T03:15:58.749Z,1.28
2019-02-17T03:18:26.167Z,1.21
2019-02-17T03:20:53.059Z,1.30
2019-02-17T03:23:19.996Z,1.36
2019-02-17T03:25:46.898Z,1.38
2019-02-17T03:28:13.883Z,1.36
2019-02-17T03:30:40.789Z,1.29
2019-02-17T03:33:07.676Z,1.30
2019-02-17T03:35:34.592Z,1.31
2019-02-17T03:38:01.510Z,1.33
2019-02-17T03:40:28.528Z,1.35
2019-02-17T03:42:55.424Z,1.42
2019-02-17T03:45:22.354Z,1.40
2019-02-17T03:47:49.244Z,1.41
2019-02-17T03:50:16.159Z,1.43
2019-02-17T03:52:43.040Z,1.38
2019-02-17T03:55:09.975Z,1.41
2019-02-17T03:57:36.848Z,1.40
2019-02-17T04:00:03.887Z,1.27
2019-02-17T04:02:30.775Z,1.14
2019-02-17T04:04:57.722Z,1.18
2019-02-17T04:07:24.593Z,1.14
2019-02-17T04:09:51.820Z,1.14
2019-02-17T04:12:18.721Z,1.17
2019-02-17T04:14:45.639Z,1.13
2019-02-17T04:17:12.828Z,1.00
2019-02-17T04:19:39.785Z,1.02
2019-02-17T04:22:06.759Z,1.06
2019-02-17T04:24:33.704Z,0.99
2019-02-17T04:27:00.605Z,0.97
2019-02-17T04:29:27.523Z,0.91
2019-02-17T04:31:54.415Z,0.89
2019-02-17T04:34:21.515Z,0.82
2019-02-17T04:36:48.399Z,0.78
2019-02-17T04:39:15.356Z,0.76
2019-02-17T04:41:42.237Z,0.77
2019-02-17T04:44:09.126Z,0.71
2019-02-17T04:46:36.056Z,0.71
2019-02-17T04:49:03.074Z,0.79
2019-02-17T04:51:29.995Z,0.78
2019-02-17T04:53:56.953Z,0.73
2019-02-17T04:56:23.880Z,0.76
2019-02-17T04:58:50.762Z,0.69
2019-02-17T05:01:17.692Z,0.67
2019-02-17T05:03:44.585Z,0.63
2019-02-17T05:06:11.514Z,0.63
2019-02-17T05:08:38.433Z,0.73
2019-02-17T05:11:05.412Z,0.74
2019-02-17T05:13:32.308Z,0.79
2019-02-17T05:15:59.259Z,0.82
2019-02-17T05:18:26.472Z,0.79
2019-02-17T05:20:53.381Z,0.65
2019-02-17T05:23:20.261Z,0.63
2019-02-17T05:25:47.178Z,0.62
2019-02-17T05:28:14.073Z,0.63
2019-02-17T05:30:52.415Z,0.65
2019-02-17T05:33:09.851Z,0.64
2019-02-17T05:35:36.759Z,0.62
2019-02-17T05:38:03.643Z,0.67
2019-02-17T05:40:30.552Z,0.66
2019-02-17T05:42:57.426Z,0.60
2019-02-17T05:45:24.335Z,0.58
2019-02-17T05:47:51.213Z,0.59
2019-02-17T05:50:18.134Z,0.67
2019-02-17T05:52:45.005Z,0.68
2019-02-17T05:55:11.929Z,0.68
2019-02-17T05:57:38.786Z,0.68
2019-02-17T06:00:06.762Z,0.60
2019-02-17T06:02:33.670Z,0.57
2019-02-17T06:05:00.553Z,0.51
2019-02-17T06:07:27.462Z,0.46
2019-02-17T06:09:54.359Z,0.48
2019-02-17T06:12:21.286Z,0.51
2019-02-17T06:14:48.189Z,0.50
2019-02-17T06:17:15.111Z,0.50
2019-02-17T06:19:42.023Z,0.49
2019-02-17T06:22:08.941Z,0.54
2019-02-17T06:24:35.809Z,0.53
2019-02-17T06:27:02.767Z,0.51
2019-02-17T06:29:30.113Z,0.53
2019-02-17T06:31:57.092Z,0.52
2019-02-17T06:34:24.011Z,0.60
2019-02-17T06:36:50.926Z,0.70
2019-02-17T06:39:17.797Z,0.63
2019-02-17T06:41:44.703Z,0.53
2019-02-17T06:44:11.578Z,0.46
2019-02-17T06:46:43.157Z,0.46
2019-02-17T06:49:10.044Z,0.49
2019-02-17T06:51:36.955Z,0.41
2019-02-17T06:54:03.844Z,0.44
2019-02-17T06:56:42.452Z,0.46
2019-02-17T06:59:09.342Z,0.45
2019-02-17T07:01:36.301Z,0.44
2019-02-17T07:04:03.242Z,0.45
2019-02-17T07:06:49.805Z,0.48
2019-02-17T07:09:16.678Z,0.49
2019-02-17T07:11:43.584Z,0.53
2019-02-17T07:14:10.551Z,0.65
2019-02-17T07:16:37.465Z,0.67
2019-02-17T07:19:04.425Z,0.70
2019-02-17T07:21:31.366Z,0.76
2019-02-17T07:23:58.790Z,0.70
2019-02-17T07:26:25.672Z,0.81
2019-02-17T07:28:52.589Z,0.77
2019-02-17T07:31:19.548Z,0.81
2019-02-17T07:33:47.504Z,0.84
2019-02-17T07:36:14.409Z,0.97
2019-02-17T07:38:41.331Z,1.01
2019-02-17T07:41:08.233Z,1.08
2019-02-17T07:43:35.169Z,1.16
2019-02-17T07:46:02.067Z,1.15
2019-02-17T07:48:28.991Z,1.09
2019-02-17T07:50:56.864Z,1.16
2019-02-17T07:53:23.981Z,1.15
2019-02-17T07:55:50.921Z,1.21
2019-02-17T07:58:18.006Z,1.25
2019-02-17T08:00:45.023Z,1.31
2019-02-17T08:03:12.053Z,1.46
2019-02-17T08:05:39.058Z,1.51
2019-02-17T08:08:06.053Z,1.62
2019-02-17T08:10:32.943Z,1.69
2019-02-17T08:12:59.986Z,1.82
2019-02-17T08:15:26.898Z,1.93
2019-02-17T08:17:53.845Z,1.98
2019-02-17T08:20:20.771Z,2.09
2019-02-17T08:22:47.676Z,2.22
2019-02-17T08:25:21.470Z,2.45
2019-02-17T08:27:43.400Z,2.58
2019-02-17T08:30:11.296Z,2.64
2019-02-17T08:32:38.187Z,2.71
2019-02-17T08:35:05.400Z,2.82
2019-02-17T08:37:32.323Z,2.91
2019-02-17T08:39:59.290Z,3.09
2019-02-17T08:42:26.223Z,3.21
2019-02-17T08:44:53.131Z,3.33
2019-02-17T08:47:21.289Z,3.52
2019-02-17T08:49:51.774Z,3.72
2019-02-17T08:52:18.787Z,3.81
2019-02-17T08:54:45.742Z,4.11
2019-02-17T08:57:12.821Z,4.22
2019-02-17T08:59:39.756Z,4.37
2019-02-17T09:02:06.650Z,4.77
2019-02-17T09:04:33.588Z,4.90
2019-02-17T09:07:00.591Z,4.99
2019-02-17T09:09:27.558Z,5.23
2019-02-17T09:11:54.614Z,5.45
2019-02-17T09:14:21.557Z,5.54
2019-02-17T09:16:48.484Z,5.57
2019-02-17T09:19:15.448Z,5.47
2019-02-17T09:21:42.393Z,5.54
2019-02-17T09:24:09.440Z,5.60
2019-02-17T09:26:36.401Z,5.73
2019-02-17T09:29:03.383Z,5.86
2019-02-17T09:31:30.277Z,6.00
2019-02-17T09:33:57.231Z,6.22
2019-02-17T09:36:24.123Z,6.44
2019-02-17T09:38:51.021Z,6.66
2019-02-17T09:41:17.962Z,6.61
2019-02-17T09:43:45.631Z,6.82
2019-02-17T09:46:12.760Z,7.00
2019-02-17T09:48:40.611Z,7.18
2019-02-17T09:51:07.559Z,7.34
2019-02-17T09:53:34.486Z,7.32
2019-02-17T09:56:01.544Z,7.44
2019-02-17T09:58:28.460Z,7.73
2019-02-17T10:00:55.481Z,7.85
2019-02-17T10:03:22.393Z,7.92
2019-02-17T10:05:49.345Z,7.90
2019-02-17T10:08:16.242Z,8.14
2019-02-17T10:10:43.880Z,8.24
2019-02-17T10:13:10.823Z,8.39
2019-02-17T10:15:37.726Z,8.37
2019-02-17T10:18:04.646Z,8.55
2019-02-17T10:20:31.603Z,8.76
2019-02-17T10:22:58.553Z,8.70
2019-02-17T10:25:25.499Z,8.71
2019-02-17T10:27:52.444Z,9.05
2019-02-17T10:30:19.396Z,9.05
2019-02-17T10:32:46.292Z,9.13
2019-02-17T10:35:13.369Z,9.46
2019-02-17T10:37:40.325Z,9.54
2019-02-17T10:40:09.120Z,9.85
2019-02-17T10:42:36.095Z,9.98
2019-02-17T10:45:03.401Z,10.13
2019-02-17T10:47:30.513Z,10.17
2019-02-17T10:49:57.469Z,10.16
2019-02-17T10:52:24.452Z,10.23
2019-02-17T10:54:51.369Z,10.51
2019-02-17T10:57:18.375Z,10.65
2019-02-17T10:59:45.291Z,10.58
2019-02-17T11:02:12.232Z,10.67
2019-02-17T11:04:39.219Z,10.78
2019-02-17T11:07:06.302Z,10.83
2019-02-17T11:09:33.193Z,11.04
2019-02-17T11:12:00.290Z,11.07
2019-02-17T11:14:27.244Z,11.10
2019-02-17T11:16:54.315Z,11.40
2019-02-17T11:19:21.964Z,11.49
2019-02-17T11:21:48.907Z,11.78
2019-02-17T11:24:15.814Z,11.97
2019-02-17T11:26:42.746Z,12.09
2019-02-17T11:29:09.687Z,12.36
2019-02-17T11:31:36.651Z,12.53
2019-02-17T11:34:03.660Z,12.57
2019-02-17T11:36:30.621Z,12.76
2019-02-17T11:38:57.994Z,13.05
2019-02-17T11:41:24.935Z,13.07
2019-02-17T11:43:51.861Z,13.10
2019-02-17T11:46:18.796Z,13.43
2019-02-17T11:48:45.753Z,13.38
2019-02-17T11:51:12.700Z,13.50
2019-02-17T11:53:39.619Z,13.29
2019-02-17T11:56:06.600Z,13.49
2019-02-17T11:58:33.567Z,13.95
2019-02-17T12:01:00.489Z,13.83
2019-02-17T12:03:27.460Z,13.56
2019-02-17T12:05:54.365Z,13.79
2019-02-17T12:08:21.341Z,14.01
2019-02-17T12:10:48.272Z,14.43
2019-02-17T12:13:15.200Z,14.68
2019-02-17T12:15:42.825Z,14.87
2019-02-17T12:18:09.762Z,15.25
2019-02-17T12:21:04.705Z,14.96
2019-02-17T12:23:35.646Z,15.13
2019-02-17T12:26:06.485Z,15.63
2019-02-17T12:28:37.262Z,15.63
2019-02-17T12:31:04.323Z,15.67
2019-02-17T12:33:31.257Z,15.45
2019-02-17T12:35:58.168Z,15.80
2019-02-17T12:38:25.119Z,16.02
2019-02-17T12:40:52.034Z,15.81
2019-02-17T12:43:19.007Z,16.09
2019-02-17T12:45:45.948Z,16.23
2019-02-17T12:48:12.911Z,16.25
2019-02-17T12:50:39.859Z,16.36
2019-02-17T12:53:06.830Z,16.65
2019-02-17T12:55:33.727Z,16.68
2019-02-17T12:58:00.714Z,16.61
2019-02-17T13:00:27.637Z,16.88
2019-02-17T13:02:54.591Z,17.10
2019-02-17T13:05:21.510Z,17.07
2019-02-17T13:07:48.479Z,16.61
2019-02-17T13:10:15.444Z,16.56
2019-02-17T13:12:42.413Z,16.86
2019-02-17T13:15:10.003Z,17.16
2019-02-17T13:17:36.997Z,17.45
2019-02-17T13:20:04.921Z,17.00
2019-02-17T13:22:31.880Z,17.08
2019-02-17T13:24:58.779Z,17.07
2019-02-17T13:27:25.742Z,16.82
2019-02-17T13:29:52.663Z,16.63
2019-02-17T13:32:19.575Z,17.15
2019-02-17T13:34:46.549Z,17.35
2019-02-17T13:37:13.473Z,17.37
2019-02-17T13:39:40.542Z,17.43
2019-02-17T13:42:07.449Z,17.59
2019-02-17T13:44:34.386Z,17.46
2019-02-17T13:47:01.318Z,17.74
2019-02-17T13:49:28.309Z,17.67
2019-02-17T13:51:55.227Z,17.20
2019-02-17T13:54:22.168Z,17.31
2019-02-17T13:56:49.103Z,17.66
2019-02-17T13:59:16.024Z,17.75
2019-02-17T14:01:42.942Z,17.58
2019-02-17T14:04:09.887Z,17.15
2019-02-17T14:06:36.790Z,16.84
2019-02-17T14:09:04.897Z,16.78
2019-02-17T14:11:31.812Z,16.70
2019-02-17T14:13:58.826Z,16.94
2019-02-17T14:16:25.766Z,16.97
2019-02-17T14:18:52.794Z,17.12
2019-02-17T14:21:19.765Z,17.00
2019-02-17T14:23:46.759Z,17.31
2019-02-17T14:26:13.710Z,17.28
2019-02-17T14:28:40.656Z,17.21
2019-02-17T14:31:07.613Z,17.06
2019-02-17T14:33:34.604Z,17.09
2019-02-17T14:36:01.583Z,17.04
2019-02-17T14:38:28.551Z,17.05
2019-02-17T14:40:55.548Z,17.08
2019-02-17T14:43:22.459Z,16.87
2019-02-17T14:45:49.401Z,16.71
2019-02-17T14:48:16.352Z,16.94
2019-02-17T14:50:43.292Z,16.85
2019-02-17T14:53:10.194Z,16.74
2019-02-17T14:55:37.208Z,16.60
2019-02-17T14:58:05.744Z,16.70
2019-02-17T15:00:32.906Z,16.51
2019-02-17T15:02:59.819Z,16.43
2019-02-17T15:05:26.750Z,16.30
2019-02-17T15:07:53.728Z,16.29
2019-02-17T15:10:20.728Z,16.27
2019-02-17T15:12:47.630Z,16.15
2019-02-17T15:15:14.592Z,16.11
2019-02-17T15:17:41.581Z,16.04
2019-02-17T15:20:10.144Z,15.95
2019-02-17T15:22:37.094Z,15.83
2019-02-17T15:25:04.871Z,15.74
2019-02-17T15:27:31.827Z,15.75
2019-02-17T15:29:58.979Z,15.86
2019-02-17T15:32:26.009Z,15.69
2019-02-17T15:34:52.990Z,15.62
2019-02-17T15:37:19.931Z,15.66
2019-02-17T15:39:47.268Z,15.57
2019-02-17T15:42:14.190Z,15.54
2019-02-17T15:44:41.139Z,15.48
2019-02-17T15:47:08.080Z,15.39
2019-02-17T15:49:35.130Z,15.34
2019-02-17T15:52:02.104Z,15.26
2019-02-17T15:54:29.140Z,15.15
2019-02-17T15:56:56.121Z,14.99
2019-02-17T15:59:23.121Z,14.93
2019-02-17T16:01:50.066Z,14.98
2019-02-17T16:04:17.069Z,14.84
2019-02-17T16:06:44.043Z,14.78
2019-02-17T16:09:10.968Z,14.70
2019-02-17T16:11:37.944Z,14.54
2019-02-17T16:14:05.040Z,14.43
2019-02-17T16:16:32.034Z,14.32
2019-02-17T16:18:59.001Z,14.32
2019-02-17T16:21:25.968Z,14.29
2019-02-17T16:23:52.887Z,14.19
2019-02-17T16:26:19.958Z,14.05
2019-02-17T16:28:46.900Z,13.85
2019-02-17T16:31:13.970Z,13.82
2019-02-17T16:33:40.907Z,13.65
2019-02-17T16:36:07.932Z,13.58
2019-02-17T16:38:35.152Z,13.51
2019-02-17T16:41:02.215Z,13.52
2019-02-17T16:43:29.268Z,13.37
2019-02-17T16:45:56.505Z,13.22
2019-02-17T16:48:23.407Z,12.91
2019-02-17T16:50:50.392Z,12.79
2019-02-17T16:53:17.327Z,12.59
2019-02-17T16:55:44.287Z,12.48
2019-02-17T16:58:11.224Z,12.29
2019-02-17T17:00:38.175Z,12.06
2019-02-17T17:03:05.244Z,11.95
2019-02-17T17:05:32.242Z,11.71
2019-02-17T17:07:59.242Z,11.60
2019-02-17T17:10:26.173Z,11.52
2019-02-17T17:12:53.076Z,11.37
2019-02-17T17:15:20.079Z,11.15
2019-02-17T17:17:47.007Z,11.03
2019-02-17T17:20:14.526Z,10.96
2019-02-17T17:22:41.524Z,10.81
2019-02-17T17:25:08.556Z,10.80
2019-02-17T17:27:35.577Z,10.59
2019-02-17T17:30:02.575Z,10.53
2019-02-17T17:32:29.532Z,10.48
2019-02-17T17:34:58.907Z,10.48
2019-02-17T17:37:25.331Z,10.49
2019-02-17T17:39:52.274Z,10.33
2019-02-17T17:42:19.209Z,10.42
2019-02-17T17:44:46.124Z,10.16
2019-02-17T17:47:13.101Z,10.15
2019-02-17T17:49:39.989Z,10.18
2019-02-17T17:52:06.934Z,10.07
2019-02-17T17:54:33.842Z,10.17
2019-02-17T17:57:00.779Z,10.09
2019-02-17T17:59:27.748Z,10.03
2019-02-17T18:01:54.802Z,10.07
2019-02-17T18:04:21.733Z,10.04
2019-02-17T18:06:48.745Z,9.99
2019-02-17T18:09:15.655Z,10.04
2019-02-17T18:11:42.597Z,10.14
2019-02-17T18:14:09.510Z,10.14
2019-02-17T18:16:36.449Z,10.06
2019-02-17T18:19:03.366Z,10.04
2019-02-17T18:21:30.326Z,10.02
2019-02-17T18:23:57.298Z,9.97
2019-02-17T18:26:24.231Z,9.93
2019-02-17T18:28:51.162Z,9.91
2019-02-17T18:31:18.285Z,9.88
2019-02-17T18:33:45.200Z,9.76
2019-02-17T18:36:12.227Z,9.67
2019-02-17T18:38:39.190Z,9.63
2019-02-17T18:41:06.117Z,9.56
2019-02-17T18:43:33.200Z,9.43
2019-02-17T18:46:00.147Z,9.44
2019-02-17T18:48:27.164Z,9.34
2019-02-17T18:50:59.179Z,9.15
2019-02-17T18:53:22.977Z,9.02
2019-02-17T18:55:49.918Z,8.99
2019-02-17T18:58:16.887Z,8.94
2019-02-17T19:00:44.026Z,8.88
2019-02-17T19:03:10.993Z,8.75
2019-02-17T19:05:38.103Z,8.76
2019-02-17T19:08:05.036Z,8.64
2019-02-17T19:10:31.981Z,8.61
2019-02-17T19:12:58.972Z,8.59
2019-02-17T19:15:25.883Z,8.46
2019-02-17T19:17:52.901Z,8.64
2019-02-17T19:20:19.931Z,8.45
2019-02-17T19:22:47.045Z,8.22
2019-02-17T19:25:13.972Z,8.14
2019-02-17T19:27:40.965Z,8.00
2019-02-17T19:30:09.970Z,7.97
2019-02-17T19:32:37.383Z,7.84
2019-02-17T19:35:05.853Z,7.77
2019-02-17T19:37:32.828Z,7.77
2019-02-17T19:40:00.327Z,7.60
2019-02-17T19:42:27.990Z,7.59
2019-02-17T19:44:54.940Z,7.49
2019-02-17T19:47:21.881Z,7.54
2019-02-17T19:49:48.780Z,7.55
2019-02-17T19:52:15.723Z,7.52
2019-02-17T19:54:48.607Z,7.48
2019-02-17T19:57:15.732Z,7.49
2019-02-17T19:59:44.669Z,7.42
2019-02-17T20:02:12.638Z,7.36
2019-02-17T20:04:45.663Z,7.33
2019-02-17T20:07:14.159Z,7.25
2019-02-17T20:09:41.232Z,7.29
2019-02-17T20:12:08.298Z,7.15
2019-02-17T20:14:35.559Z,7.10
2019-02-17T20:17:02.718Z,7.06
2019-02-17T20:19:29.975Z,7.02
2019-02-17T20:21:56.962Z,6.98
2019-02-17T20:24:24.030Z,6.94
2019-02-17T20:26:51.036Z,6.85
2019-02-17T20:29:17.995Z,6.80
2019-02-17T20:31:45.033Z,6.76
2019-02-17T20:34:14.493Z,6.73
2019-02-17T20:36:40.893Z,6.71
2019-02-17T20:39:08.557Z,6.67
2019-02-17T20:41:35.522Z,6.58
2019-02-17T20:44:02.531Z,6.50
2019-02-17T20:46:29.485Z,6.45
2019-02-17T20:48:56.444Z,6.43
2019-02-17T20:51:23.846Z,6.35
2019-02-17T20:53:50.832Z,6.21
2019-02-17T20:56:17.777Z,6.22
2019-02-17T20:58:44.778Z,6.18
2019-02-17T21:01:11.745Z,6.20
2019-02-17T21:03:38.759Z,6.21
2019-02-17T21:06:12.526Z,6.15
2019-02-17T21:08:34.695Z,6.13
2019-02-17T21:11:01.611Z,6.09
2019-02-17T21:13:28.569Z,6.04
2019-02-17T21:15:55.463Z,5.91
2019-02-17T21:18:22.408Z,5.83
2019-02-17T21:20:49.338Z,5.77
2019-02-17T21:23:16.302Z,5.85
2019-02-17T21:25:43.212Z,5.77
2019-02-17T21:28:10.167Z,5.82
2019-02-17T21:30:37.112Z,5.72
2019-02-17T21:33:04.155Z,5.68
2019-02-17T21:35:31.096Z,5.68
2019-02-17T21:37:58.009Z,5.62
2019-02-17T21:40:24.950Z,5.65
2019-02-17T21:42:51.852Z,5.57
2019-02-17T21:45:18.791Z,5.33
2019-02-17T21:47:45.991Z,5.56
2019-02-17T21:50:12.941Z,5.37
2019-02-17T21:52:41.798Z,5.37
2019-02-17T21:55:09.111Z,5.25
2019-02-17T21:57:36.012Z,5.27
2019-02-17T22:00:04.041Z,5.13
2019-02-17T22:02:30.945Z,5.05
2019-02-17T22:04:57.882Z,5.00
2019-02-17T22:07:24.791Z,5.00
2019-02-17T22:09:51.750Z,4.97
2019-02-17T22:12:18.677Z,4.85
2019-02-17T22:14:45.606Z,4.88
2019-02-17T22:17:12.517Z,4.88
2019-02-17T22:19:39.501Z,4.64
2019-02-17T22:22:06.593Z,4.57
2019-02-17T22:24:33.621Z,4.50
2019-02-17T22:27:00.537Z,4.54
2019-02-17T22:29:27.508Z,4.52
2019-02-17T22:31:54.439Z,4.52
2019-02-17T22:34:21.431Z,4.46
2019-02-17T22:36:48.335Z,4.35
2019-02-17T22:39:15.316Z,4.27
2019-02-17T22:41:42.239Z,4.24
2019-02-17T22:44:09.178Z,4.22
2019-02-17T22:46:36.094Z,4.25
2019-02-17T22:49:03.150Z,4.31
2019-02-17T22:51:30.076Z,4.37
2019-02-17T22:53:57.082Z,4.31
2019-02-17T22:56:23.985Z,4.22
2019-02-17T22:58:50.872Z,4.26
2019-02-17T23:01:22.945Z,4.28
2019-02-17T23:03:49.841Z,4.19
2019-02-17T23:06:16.809Z,4.09
2019-02-17T23:08:43.734Z,4.07
2019-02-17T23:11:10.681Z,4.02
2019-02-17T23:13:37.620Z,4.08
2019-02-17T23:16:04.549Z,4.03
2019-02-17T23:18:31.545Z,3.99
2019-02-17T23:20:58.488Z,3.95
2019-02-17T23:23:25.470Z,3.94
2019-02-17T23:25:52.377Z,4.01
2019-02-17T23:28:19.266Z,3.89
2019-02-17T23:30:46.204Z,3.90
2019-02-17T23:33:13.113Z,3.79
2019-02-17T23:35:40.077Z,3.82
2019-02-17T23:38:07.088Z,3.88
2019-02-17T23:40:34.030Z,3.82
2019-02-17T23:43:00.940Z,3.77
2019-02-17T23:45:27.963Z,3.77
2019-02-17T23:47:54.865Z,3.69
2019-02-17T23:50:21.780Z,3.64
2019-02-17T23:52:48.760Z,3.66
2019-02-17T23:55:15.698Z,3.65
2019-02-17T23:57:42.614Z,3.66
